sensor_id;sensor_type;location;lat;lon;timestamp;P1;durP1;ratioP1;P2;durP2;ratioP2
9449;SDS011;4763;48.370;10.874;2023-12-14T00:00:21;3.97;;;2.90;;
9449;SDS011;4763;48.370;10.874;2023-12-14T00:03:08;2.93;;;2.50;;
9449;SDS011;4763;48.370;10.874;2023-12-14T00:05:56;3.77;;;3.20;;
9449;SDS011;4763;48.370;10.874;2023-12-14T00:08:43;3.50;;;3.03;;
9449;SDS011;4763;48.370;10.874;2023-12-14T00:11:30;4.53;;;3.50;;
9449;SDS011;4763;48.370;10.874;2023-12-14T00:14:20;4.53;;;3.00;;
9449;SDS011;4763;48.370;10.874;2023-12-14T00:17:07;3.03;;;2.63;;
9449;SDS011;4763;48.370;10.874;2023-12-14T00:19:54;2.73;;;2.37;;
9449;SDS011;4763;48.370;10.874;2023-12-14T00:22:42;2.40;;;2.20;;
9449;SDS011;4763;48.370;10.874;2023-12-14T00:25:29;2.67;;;2.10;;
9449;SDS011;4763;48.370;10.874;2023-12-14T00:28:16;2.50;;;2.27;;
9449;SDS011;4763;48.370;10.874;2023-12-14T00:31:04;2.20;;;2.00;;
9449;SDS011;4763;48.370;10.874;2023-12-14T00:33:51;2.40;;;2.00;;
9449;SDS011;4763;48.370;10.874;2023-12-14T00:36:38;2.83;;;2.00;;
9449;SDS011;4763;48.370;10.874;2023-12-14T00:39:26;2.67;;;2.30;;
9449;SDS011;4763;48.370;10.874;2023-12-14T00:42:13;1.80;;;1.70;;
9449;SDS011;4763;48.370;10.874;2023-12-14T00:45:00;2.77;;;1.90;;
9449;SDS011;4763;48.370;10.874;2023-12-14T00:47:47;1.70;;;1.53;;
9449;SDS011;4763;48.370;10.874;2023-12-14T00:50:34;2.07;;;1.87;;
9449;SDS011;4763;48.370;10.874;2023-12-14T00:53:22;2.23;;;1.90;;
9449;SDS011;4763;48.370;10.874;2023-12-14T00:56:10;2.13;;;1.93;;
9449;SDS011;4763;48.370;10.874;2023-12-14T00:58:57;2.30;;;2.00;;
9449;SDS011;4763;48.370;10.874;2023-12-14T01:01:44;2.10;;;1.90;;
9449;SDS011;4763;48.370;10.874;2023-12-14T01:04:32;2.20;;;2.00;;
9449;SDS011;4763;48.370;10.874;2023-12-14T01:07:19;2.33;;;2.13;;
9449;SDS011;4763;48.370;10.874;2023-12-14T01:10:07;3.10;;;2.47;;
9449;SDS011;4763;48.370;10.874;2023-12-14T01:12:55;3.03;;;2.27;;
9449;SDS011;4763;48.370;10.874;2023-12-14T01:15:43;6.17;;;2.50;;
9449;SDS011;4763;48.370;10.874;2023-12-14T01:18:30;3.83;;;2.40;;
9449;SDS011;4763;48.370;10.874;2023-12-14T01:21:17;4.00;;;3.10;;
9449;SDS011;4763;48.370;10.874;2023-12-14T01:24:04;3.50;;;3.20;;
9449;SDS011;4763;48.370;10.874;2023-12-14T01:26:52;4.57;;;3.63;;
9449;SDS011;4763;48.370;10.874;2023-12-14T01:29:40;4.03;;;3.13;;
9449;SDS011;4763;48.370;10.874;2023-12-14T01:32:27;3.83;;;3.43;;
9449;SDS011;4763;48.370;10.874;2023-12-14T01:35:15;3.80;;;3.13;;
9449;SDS011;4763;48.370;10.874;2023-12-14T01:38:02;4.17;;;3.60;;
9449;SDS011;4763;48.370;10.874;2023-12-14T01:40:49;3.73;;;3.40;;
9449;SDS011;4763;48.370;10.874;2023-12-14T01:43:36;4.53;;;3.60;;
9449;SDS011;4763;48.370;10.874;2023-12-14T01:46:24;4.03;;;3.63;;
9449;SDS011;4763;48.370;10.874;2023-12-14T01:49:11;3.77;;;3.17;;
9449;SDS011;4763;48.370;10.874;2023-12-14T01:51:58;3.77;;;3.37;;
9449;SDS011;4763;48.370;10.874;2023-12-14T01:54:45;3.73;;;3.17;;
9449;SDS011;4763;48.370;10.874;2023-12-14T01:57:32;5.83;;;3.63;;
9449;SDS011;4763;48.370;10.874;2023-12-14T02:00:23;4.40;;;2.77;;
9449;SDS011;4763;48.370;10.874;2023-12-14T02:03:21;4.73;;;3.07;;
9449;SDS011;4763;48.370;10.874;2023-12-14T02:06:08;3.40;;;3.10;;
9449;SDS011;4763;48.370;10.874;2023-12-14T02:08:56;3.57;;;3.00;;
9449;SDS011;4763;48.370;10.874;2023-12-14T02:11:43;3.50;;;2.57;;
9449;SDS011;4763;48.370;10.874;2023-12-14T02:14:30;5.33;;;3.07;;
9449;SDS011;4763;48.370;10.874;2023-12-14T02:17:17;2.83;;;2.50;;
9449;SDS011;4763;48.370;10.874;2023-12-14T02:20:06;3.10;;;2.60;;
9449;SDS011;4763;48.370;10.874;2023-12-14T02:22:54;3.07;;;2.77;;
9449;SDS011;4763;48.370;10.874;2023-12-14T02:25:42;2.80;;;2.03;;
9449;SDS011;4763;48.370;10.874;2023-12-14T02:28:29;3.20;;;2.23;;
9449;SDS011;4763;48.370;10.874;2023-12-14T02:31:17;3.90;;;3.17;;
9449;SDS011;4763;48.370;10.874;2023-12-14T02:34:05;2.37;;;2.17;;
9449;SDS011;4763;48.370;10.874;2023-12-14T02:36:52;2.40;;;2.20;;
9449;SDS011;4763;48.370;10.874;2023-12-14T02:39:40;2.37;;;2.17;;
9449;SDS011;4763;48.370;10.874;2023-12-14T02:42:28;2.67;;;2.30;;
9449;SDS011;4763;48.370;10.874;2023-12-14T02:45:15;2.20;;;2.00;;
9449;SDS011;4763;48.370;10.874;2023-12-14T02:48:02;2.43;;;1.80;;
9449;SDS011;4763;48.370;10.874;2023-12-14T02:50:49;2.10;;;1.90;;
9449;SDS011;4763;48.370;10.874;2023-12-14T02:53:36;3.30;;;2.50;;
9449;SDS011;4763;48.370;10.874;2023-12-14T02:56:24;2.73;;;2.50;;
9449;SDS011;4763;48.370;10.874;2023-12-14T02:59:12;3.10;;;2.70;;
9449;SDS011;4763;48.370;10.874;2023-12-14T03:01:59;2.93;;;2.73;;
9449;SDS011;4763;48.370;10.874;2023-12-14T03:04:46;3.80;;;3.33;;
9449;SDS011;4763;48.370;10.874;2023-12-14T03:07:33;3.60;;;3.30;;
9449;SDS011;4763;48.370;10.874;2023-12-14T03:10:20;4.13;;;3.23;;
9449;SDS011;4763;48.370;10.874;2023-12-14T03:13:08;5.17;;;3.57;;
9449;SDS011;4763;48.370;10.874;2023-12-14T03:15:55;3.40;;;3.10;;
9449;SDS011;4763;48.370;10.874;2023-12-14T03:18:42;4.03;;;3.43;;
9449;SDS011;4763;48.370;10.874;2023-12-14T03:21:29;4.47;;;3.73;;
9449;SDS011;4763;48.370;10.874;2023-12-14T03:24:16;4.07;;;3.53;;
9449;SDS011;4763;48.370;10.874;2023-12-14T03:27:04;3.40;;;3.07;;
9449;SDS011;4763;48.370;10.874;2023-12-14T03:29:52;4.03;;;3.63;;
9449;SDS011;4763;48.370;10.874;2023-12-14T03:32:39;4.40;;;3.70;;
9449;SDS011;4763;48.370;10.874;2023-12-14T03:35:27;4.93;;;3.20;;
9449;SDS011;4763;48.370;10.874;2023-12-14T03:38:14;6.83;;;3.83;;
9449;SDS011;4763;48.370;10.874;2023-12-14T03:41:01;3.70;;;2.97;;
9449;SDS011;4763;48.370;10.874;2023-12-14T03:43:48;4.93;;;3.03;;
9449;SDS011;4763;48.370;10.874;2023-12-14T03:46:37;3.57;;;3.03;;
9449;SDS011;4763;48.370;10.874;2023-12-14T03:49:24;4.53;;;3.60;;
9449;SDS011;4763;48.370;10.874;2023-12-14T03:52:11;3.67;;;3.17;;
9449;SDS011;4763;48.370;10.874;2023-12-14T03:54:58;3.43;;;3.13;;
9449;SDS011;4763;48.370;10.874;2023-12-14T03:57:45;4.80;;;3.07;;
9449;SDS011;4763;48.370;10.874;2023-12-14T04:00:32;4.32;;;3.92;;
9449;SDS011;4763;48.370;10.874;2023-12-14T04:03:21;5.00;;;3.40;;
9449;SDS011;4763;48.370;10.874;2023-12-14T04:06:08;4.00;;;3.37;;
9449;SDS011;4763;48.370;10.874;2023-12-14T04:08:55;3.40;;;3.10;;
9449;SDS011;4763;48.370;10.874;2023-12-14T04:11:42;3.30;;;2.93;;
9449;SDS011;4763;48.370;10.874;2023-12-14T04:14:29;3.43;;;3.13;;
9449;SDS011;4763;48.370;10.874;2023-12-14T04:17:16;3.83;;;3.20;;
9449;SDS011;4763;48.370;10.874;2023-12-14T04:20:05;3.23;;;2.93;;
9449;SDS011;4763;48.370;10.874;2023-12-14T04:22:53;3.00;;;2.70;;
9449;SDS011;4763;48.370;10.874;2023-12-14T04:25:41;4.67;;;3.00;;
9449;SDS011;4763;48.370;10.874;2023-12-14T04:28:28;3.30;;;2.87;;
9449;SDS011;4763;48.370;10.874;2023-12-14T04:31:15;3.37;;;3.07;;
9449;SDS011;4763;48.370;10.874;2023-12-14T04:34:02;4.93;;;2.90;;
9449;SDS011;4763;48.370;10.874;2023-12-14T04:36:50;2.87;;;2.60;;
9449;SDS011;4763;48.370;10.874;2023-12-14T04:39:38;3.03;;;2.73;;
9449;SDS011;4763;48.370;10.874;2023-12-14T04:42:25;3.33;;;2.90;;
9449;SDS011;4763;48.370;10.874;2023-12-14T04:45:13;2.73;;;2.40;;
9449;SDS011;4763;48.370;10.874;2023-12-14T04:48:02;2.90;;;2.50;;
9449;SDS011;4763;48.370;10.874;2023-12-14T04:50:49;3.07;;;2.60;;
9449;SDS011;4763;48.370;10.874;2023-12-14T04:53:37;4.30;;;2.77;;
9449;SDS011;4763;48.370;10.874;2023-12-14T04:56:24;2.57;;;2.37;;
9449;SDS011;4763;48.370;10.874;2023-12-14T04:59:11;2.80;;;2.47;;
9449;SDS011;4763;48.370;10.874;2023-12-14T05:01:58;3.47;;;2.37;;
9449;SDS011;4763;48.370;10.874;2023-12-14T05:04:45;3.23;;;2.50;;
9449;SDS011;4763;48.370;10.874;2023-12-14T05:07:32;4.63;;;2.90;;
9449;SDS011;4763;48.370;10.874;2023-12-14T05:10:21;3.03;;;2.60;;
9449;SDS011;4763;48.370;10.874;2023-12-14T05:13:08;2.77;;;2.57;;
9449;SDS011;4763;48.370;10.874;2023-12-14T05:15:55;4.87;;;2.93;;
9449;SDS011;4763;48.370;10.874;2023-12-14T05:18:43;4.57;;;2.40;;
9449;SDS011;4763;48.370;10.874;2023-12-14T05:21:30;3.43;;;2.63;;
9449;SDS011;4763;48.370;10.874;2023-12-14T05:24:17;4.87;;;2.60;;
9449;SDS011;4763;48.370;10.874;2023-12-14T05:27:06;3.63;;;2.53;;
9449;SDS011;4763;48.370;10.874;2023-12-14T05:29:53;3.60;;;2.93;;
9449;SDS011;4763;48.370;10.874;2023-12-14T05:32:40;2.70;;;2.47;;
9449;SDS011;4763;48.370;10.874;2023-12-14T05:35:28;3.03;;;2.63;;
9449;SDS011;4763;48.370;10.874;2023-12-14T05:38:18;3.67;;;3.20;;
9449;SDS011;4763;48.370;10.874;2023-12-14T05:41:05;4.40;;;3.20;;
9449;SDS011;4763;48.370;10.874;2023-12-14T05:43:53;3.40;;;2.80;;
9449;SDS011;4763;48.370;10.874;2023-12-14T05:46:40;3.70;;;3.10;;
9449;SDS011;4763;48.370;10.874;2023-12-14T05:49:27;5.07;;;3.00;;
9449;SDS011;4763;48.370;10.874;2023-12-14T05:52:14;4.30;;;3.20;;
9449;SDS011;4763;48.370;10.874;2023-12-14T05:55:02;3.60;;;2.83;;
9449;SDS011;4763;48.370;10.874;2023-12-14T05:57:49;3.60;;;3.03;;
9449;SDS011;4763;48.370;10.874;2023-12-14T06:00:38;4.93;;;3.37;;
9449;SDS011;4763;48.370;10.874;2023-12-14T06:03:25;3.43;;;2.80;;
9449;SDS011;4763;48.370;10.874;2023-12-14T06:06:12;3.30;;;2.73;;
9449;SDS011;4763;48.370;10.874;2023-12-14T06:08:59;4.53;;;3.53;;
9449;SDS011;4763;48.370;10.874;2023-12-14T06:11:46;5.97;;;3.17;;
9449;SDS011;4763;48.370;10.874;2023-12-14T06:14:34;4.17;;;2.80;;
9449;SDS011;4763;48.370;10.874;2023-12-14T06:27:33;5.37;;;2.90;;
9449;SDS011;4763;48.370;10.874;2023-12-14T06:30:34;4.67;;;3.40;;
9449;SDS011;4763;48.370;10.874;2023-12-14T06:33:36;4.00;;;3.23;;
9449;SDS011;4763;48.370;10.874;2023-12-14T06:36:41;7.73;;;4.20;;
9449;SDS011;4763;48.370;10.874;2023-12-14T07:08:21;10.97;;;5.37;;
9449;SDS011;4763;48.370;10.874;2023-12-14T07:11:11;6.93;;;5.00;;
9449;SDS011;4763;48.370;10.874;2023-12-14T07:13:58;7.30;;;4.70;;
9449;SDS011;4763;48.370;10.874;2023-12-14T07:16:45;5.10;;;4.50;;
9449;SDS011;4763;48.370;10.874;2023-12-14T07:19:32;5.67;;;4.70;;
9449;SDS011;4763;48.370;10.874;2023-12-14T07:22:20;6.07;;;4.70;;
9449;SDS011;4763;48.370;10.874;2023-12-14T07:27:45;13.60;;;7.03;;
9449;SDS011;4763;48.370;10.874;2023-12-14T07:30:32;16.13;;;7.83;;
9449;SDS011;4763;48.370;10.874;2023-12-14T07:33:19;12.10;;;7.23;;
9449;SDS011;4763;48.370;10.874;2023-12-14T07:36:07;10.07;;;7.03;;
9449;SDS011;4763;48.370;10.874;2023-12-14T07:38:55;9.30;;;6.27;;
9449;SDS011;4763;48.370;10.874;2023-12-14T07:41:42;8.67;;;5.97;;
9449;SDS011;4763;48.370;10.874;2023-12-14T07:44:31;6.37;;;5.57;;
9449;SDS011;4763;48.370;10.874;2023-12-14T07:47:18;11.10;;;7.40;;
9449;SDS011;4763;48.370;10.874;2023-12-14T07:50:06;9.03;;;6.30;;
9449;SDS011;4763;48.370;10.874;2023-12-14T07:52:53;8.73;;;6.33;;
9449;SDS011;4763;48.370;10.874;2023-12-14T07:55:40;9.13;;;6.43;;
9449;SDS011;4763;48.370;10.874;2023-12-14T07:58:27;9.63;;;6.30;;
9449;SDS011;4763;48.370;10.874;2023-12-14T08:01:16;11.30;;;7.07;;
9449;SDS011;4763;48.370;10.874;2023-12-14T08:14:24;8.47;;;6.40;;
9449;SDS011;4763;48.370;10.874;2023-12-14T08:17:13;9.20;;;6.87;;
9449;SDS011;4763;48.370;10.874;2023-12-14T08:20:00;8.80;;;6.73;;
9449;SDS011;4763;48.370;10.874;2023-12-14T08:22:49;9.53;;;7.13;;
9449;SDS011;4763;48.370;10.874;2023-12-14T08:25:37;10.13;;;6.63;;
9449;SDS011;4763;48.370;10.874;2023-12-14T08:28:25;9.30;;;6.90;;
9449;SDS011;4763;48.370;10.874;2023-12-14T08:31:12;9.87;;;6.63;;
9449;SDS011;4763;48.370;10.874;2023-12-14T10:35:46;6.83;;;5.00;;
9449;SDS011;4763;48.370;10.874;2023-12-14T10:38:34;6.20;;;5.30;;
9449;SDS011;4763;48.370;10.874;2023-12-14T10:41:23;6.07;;;4.50;;
9449;SDS011;4763;48.370;10.874;2023-12-14T10:44:11;5.93;;;4.97;;
9449;SDS011;4763;48.370;10.874;2023-12-14T10:46:58;6.17;;;4.77;;
9449;SDS011;4763;48.370;10.874;2023-12-14T10:49:46;5.43;;;4.43;;
9449;SDS011;4763;48.370;10.874;2023-12-14T10:52:38;5.87;;;4.57;;
9449;SDS011;4763;48.370;10.874;2023-12-14T10:55:27;5.17;;;4.30;;
9449;SDS011;4763;48.370;10.874;2023-12-14T10:58:19;5.03;;;4.17;;
9449;SDS011;4763;48.370;10.874;2023-12-14T11:01:06;9.23;;;4.03;;
9449;SDS011;4763;48.370;10.874;2023-12-14T11:03:54;5.80;;;3.73;;
9449;SDS011;4763;48.370;10.874;2023-12-14T11:06:42;3.83;;;3.30;;
9449;SDS011;4763;48.370;10.874;2023-12-14T11:09:33;5.07;;;4.00;;
9449;SDS011;4763;48.370;10.874;2023-12-14T11:12:22;4.27;;;3.87;;
9449;SDS011;4763;48.370;10.874;2023-12-14T11:15:10;4.03;;;3.30;;
9449;SDS011;4763;48.370;10.874;2023-12-14T11:21:07;4.03;;;3.47;;
9449;SDS011;4763;48.370;10.874;2023-12-14T11:23:54;4.23;;;3.63;;
9449;SDS011;4763;48.370;10.874;2023-12-14T11:26:44;3.87;;;3.47;;
9449;SDS011;4763;48.370;10.874;2023-12-14T11:29:31;5.67;;;3.57;;
9449;SDS011;4763;48.370;10.874;2023-12-14T11:32:18;4.00;;;3.40;;
9449;SDS011;4763;48.370;10.874;2023-12-14T11:35:06;4.87;;;3.17;;
9449;SDS011;4763;48.370;10.874;2023-12-14T11:37:57;3.90;;;3.50;;
9449;SDS011;4763;48.370;10.874;2023-12-14T11:40:45;3.77;;;3.00;;
9449;SDS011;4763;48.370;10.874;2023-12-14T11:43:39;4.47;;;3.13;;
9449;SDS011;4763;48.370;10.874;2023-12-14T11:46:28;3.77;;;3.23;;
9449;SDS011;4763;48.370;10.874;2023-12-14T11:49:16;7.27;;;2.97;;
9449;SDS011;4763;48.370;10.874;2023-12-14T11:52:03;4.27;;;3.13;;
9449;SDS011;4763;48.370;10.874;2023-12-14T11:54:51;4.03;;;3.13;;
9449;SDS011;4763;48.370;10.874;2023-12-14T11:57:39;4.90;;;3.30;;
9449;SDS011;4763;48.370;10.874;2023-12-14T12:00:33;3.47;;;2.90;;
9449;SDS011;4763;48.370;10.874;2023-12-14T12:03:23;12.73;;;11.33;;
9449;SDS011;4763;48.370;10.874;2023-12-14T12:06:19;5.63;;;4.80;;
9449;SDS011;4763;48.370;10.874;2023-12-14T12:09:07;5.73;;;5.23;;
9449;SDS011;4763;48.370;10.874;2023-12-14T12:11:56;6.27;;;3.90;;
9449;SDS011;4763;48.370;10.874;2023-12-14T12:14:44;4.93;;;4.33;;
9449;SDS011;4763;48.370;10.874;2023-12-14T12:17:32;4.10;;;3.70;;
9449;SDS011;4763;48.370;10.874;2023-12-14T12:20:22;5.17;;;4.23;;
9449;SDS011;4763;48.370;10.874;2023-12-14T12:23:11;4.10;;;3.43;;
9449;SDS011;4763;48.370;10.874;2023-12-14T12:25:58;3.90;;;3.50;;
9449;SDS011;4763;48.370;10.874;2023-12-14T12:28:45;4.17;;;3.40;;
9449;SDS011;4763;48.370;10.874;2023-12-14T12:31:33;5.27;;;3.57;;
9449;SDS011;4763;48.370;10.874;2023-12-14T12:34:23;5.90;;;3.70;;
9449;SDS011;4763;48.370;10.874;2023-12-14T12:37:10;7.00;;;3.67;;
9449;SDS011;4763;48.370;10.874;2023-12-14T12:39:57;6.47;;;3.50;;
9449;SDS011;4763;48.370;10.874;2023-12-14T12:42:44;4.93;;;3.20;;
9449;SDS011;4763;48.370;10.874;2023-12-14T12:45:33;4.73;;;3.40;;
9449;SDS011;4763;48.370;10.874;2023-12-14T12:48:20;6.23;;;4.10;;
9449;SDS011;4763;48.370;10.874;2023-12-14T12:51:09;4.30;;;3.30;;
9449;SDS011;4763;48.370;10.874;2023-12-14T12:53:57;4.47;;;3.90;;
9449;SDS011;4763;48.370;10.874;2023-12-14T12:56:44;4.27;;;3.80;;
9449;SDS011;4763;48.370;10.874;2023-12-14T12:59:32;4.80;;;3.90;;
9449;SDS011;4763;48.370;10.874;2023-12-14T13:02:19;5.97;;;4.27;;
9449;SDS011;4763;48.370;10.874;2023-12-14T13:05:06;8.73;;;4.23;;
9449;SDS011;4763;48.370;10.874;2023-12-14T13:07:55;7.80;;;4.30;;
9449;SDS011;4763;48.370;10.874;2023-12-14T13:10:43;14.00;;;10.60;;
9449;SDS011;4763;48.370;10.874;2023-12-14T13:13:30;6.70;;;4.83;;
9449;SDS011;4763;48.370;10.874;2023-12-14T13:16:17;5.00;;;3.70;;
9449;SDS011;4763;48.370;10.874;2023-12-14T13:19:04;4.93;;;4.00;;
9449;SDS011;4763;48.370;10.874;2023-12-14T13:21:52;7.13;;;4.23;;
9449;SDS011;4763;48.370;10.874;2023-12-14T13:24:40;8.23;;;4.00;;
9449;SDS011;4763;48.370;10.874;2023-12-14T13:27:27;5.17;;;3.90;;
9449;SDS011;4763;48.370;10.874;2023-12-14T13:30:14;5.07;;;4.27;;
9449;SDS011;4763;48.370;10.874;2023-12-14T13:33:03;4.83;;;4.00;;
9449;SDS011;4763;48.370;10.874;2023-12-14T13:35:52;6.63;;;4.20;;
9449;SDS011;4763;48.370;10.874;2023-12-14T13:38:40;5.13;;;4.13;;
9449;SDS011;4763;48.370;10.874;2023-12-14T13:41:29;6.03;;;3.97;;
9449;SDS011;4763;48.370;10.874;2023-12-14T13:44:19;7.63;;;4.30;;
9449;SDS011;4763;48.370;10.874;2023-12-14T13:47:06;5.30;;;3.77;;
9449;SDS011;4763;48.370;10.874;2023-12-14T13:49:53;5.67;;;4.30;;
9449;SDS011;4763;48.370;10.874;2023-12-14T13:52:40;5.57;;;3.63;;
9449;SDS011;4763;48.370;10.874;2023-12-14T13:55:27;7.20;;;4.23;;
9449;SDS011;4763;48.370;10.874;2023-12-14T13:58:16;4.73;;;3.67;;
9449;SDS011;4763;48.370;10.874;2023-12-14T14:01:03;5.10;;;3.30;;
9449;SDS011;4763;48.370;10.874;2023-12-14T14:03:52;5.93;;;3.43;;
9449;SDS011;4763;48.370;10.874;2023-12-14T14:06:39;6.57;;;3.73;;
9449;SDS011;4763;48.370;10.874;2023-12-14T14:09:26;3.90;;;2.63;;
9449;SDS011;4763;48.370;10.874;2023-12-14T14:12:13;4.27;;;2.00;;
9449;SDS011;4763;48.370;10.874;2023-12-14T14:15:02;4.83;;;2.10;;
9449;SDS011;4763;48.370;10.874;2023-12-14T14:17:50;2.63;;;2.13;;
9449;SDS011;4763;48.370;10.874;2023-12-14T14:20:39;5.03;;;4.23;;
9449;SDS011;4763;48.370;10.874;2023-12-14T14:23:26;4.33;;;3.20;;
9449;SDS011;4763;48.370;10.874;2023-12-14T14:26:13;6.10;;;3.30;;
9449;SDS011;4763;48.370;10.874;2023-12-14T14:29:01;8.17;;;2.87;;
9449;SDS011;4763;48.370;10.874;2023-12-14T14:31:50;6.13;;;3.43;;
9449;SDS011;4763;48.370;10.874;2023-12-14T14:34:38;3.30;;;3.00;;
9449;SDS011;4763;48.370;10.874;2023-12-14T14:37:26;4.87;;;3.20;;
9449;SDS011;4763;48.370;10.874;2023-12-14T14:40:13;6.37;;;3.00;;
9449;SDS011;4763;48.370;10.874;2023-12-14T14:43:01;4.70;;;3.40;;
9449;SDS011;4763;48.370;10.874;2023-12-14T14:45:48;8.93;;;4.20;;
9449;SDS011;4763;48.370;10.874;2023-12-14T14:48:36;5.40;;;3.60;;
9449;SDS011;4763;48.370;10.874;2023-12-14T14:51:23;6.23;;;3.63;;
9449;SDS011;4763;48.370;10.874;2023-12-14T14:54:12;5.40;;;3.30;;
9449;SDS011;4763;48.370;10.874;2023-12-14T14:56:59;5.60;;;3.17;;
9449;SDS011;4763;48.370;10.874;2023-12-14T14:59:46;5.50;;;3.40;;
9449;SDS011;4763;48.370;10.874;2023-12-14T15:02:33;3.40;;;3.00;;
9449;SDS011;4763;48.370;10.874;2023-12-14T15:05:22;4.63;;;3.20;;
9449;SDS011;4763;48.370;10.874;2023-12-14T15:08:09;6.43;;;4.00;;
9449;SDS011;4763;48.370;10.874;2023-12-14T15:10:56;6.70;;;3.47;;
9449;SDS011;4763;48.370;10.874;2023-12-14T15:13:43;5.60;;;4.10;;
9449;SDS011;4763;48.370;10.874;2023-12-14T15:16:30;5.97;;;4.13;;
9449;SDS011;4763;48.370;10.874;2023-12-14T15:19:17;5.47;;;3.50;;
9449;SDS011;4763;48.370;10.874;2023-12-14T15:22:06;8.17;;;3.90;;
9449;SDS011;4763;48.370;10.874;2023-12-14T15:24:53;5.77;;;3.90;;
9449;SDS011;4763;48.370;10.874;2023-12-14T15:27:40;5.77;;;4.13;;
9449;SDS011;4763;48.370;10.874;2023-12-14T15:30:27;7.60;;;3.63;;
9449;SDS011;4763;48.370;10.874;2023-12-14T15:33:14;5.00;;;3.63;;
9449;SDS011;4763;48.370;10.874;2023-12-14T15:36:01;7.07;;;4.40;;
9449;SDS011;4763;48.370;10.874;2023-12-14T15:38:50;6.07;;;4.13;;
9449;SDS011;4763;48.370;10.874;2023-12-14T15:41:37;8.47;;;4.03;;
9449;SDS011;4763;48.370;10.874;2023-12-14T15:44:24;5.50;;;3.93;;
9449;SDS011;4763;48.370;10.874;2023-12-14T15:47:11;6.20;;;4.20;;
9449;SDS011;4763;48.370;10.874;2023-12-14T15:49:58;5.97;;;4.20;;
9449;SDS011;4763;48.370;10.874;2023-12-14T15:52:45;6.57;;;3.80;;
9449;SDS011;4763;48.370;10.874;2023-12-14T15:55:34;6.27;;;4.13;;
9449;SDS011;4763;48.370;10.874;2023-12-14T15:58:21;10.23;;;4.10;;
9449;SDS011;4763;48.370;10.874;2023-12-14T16:01:08;6.37;;;3.43;;
9449;SDS011;4763;48.370;10.874;2023-12-14T16:03:55;5.95;;;4.05;;
9449;SDS011;4763;48.370;10.874;2023-12-14T16:06:42;6.20;;;3.43;;
9449;SDS011;4763;48.370;10.874;2023-12-14T16:09:29;11.07;;;6.43;;
9449;SDS011;4763;48.370;10.874;2023-12-14T16:12:18;15.83;;;12.20;;
9449;SDS011;4763;48.370;10.874;2023-12-14T16:15:05;12.47;;;8.97;;
9449;SDS011;4763;48.370;10.874;2023-12-14T16:17:53;32.87;;;26.37;;
9449;SDS011;4763;48.370;10.874;2023-12-14T16:20:40;14.53;;;10.17;;
9449;SDS011;4763;48.370;10.874;2023-12-14T16:23:27;15.33;;;9.03;;
9449;SDS011;4763;48.370;10.874;2023-12-14T16:26:14;10.77;;;7.30;;
9449;SDS011;4763;48.370;10.874;2023-12-14T16:29:03;7.70;;;6.37;;
9449;SDS011;4763;48.370;10.874;2023-12-14T16:31:54;9.87;;;7.60;;
9449;SDS011;4763;48.370;10.874;2023-12-14T16:34:41;11.33;;;9.63;;
9449;SDS011;4763;48.370;10.874;2023-12-14T16:37:28;8.87;;;7.27;;
9449;SDS011;4763;48.370;10.874;2023-12-14T16:40:16;15.43;;;7.87;;
9449;SDS011;4763;48.370;10.874;2023-12-14T16:43:03;10.67;;;6.80;;
9449;SDS011;4763;48.370;10.874;2023-12-14T16:45:52;11.93;;;7.87;;
9449;SDS011;4763;48.370;10.874;2023-12-14T16:48:39;14.93;;;9.00;;
9449;SDS011;4763;48.370;10.874;2023-12-14T16:51:26;9.23;;;5.93;;
9449;SDS011;4763;48.370;10.874;2023-12-14T16:54:13;12.83;;;6.20;;
9449;SDS011;4763;48.370;10.874;2023-12-14T16:57:00;8.20;;;5.60;;
9449;SDS011;4763;48.370;10.874;2023-12-14T16:59:49;9.00;;;6.33;;
9449;SDS011;4763;48.370;10.874;2023-12-14T17:02:40;12.30;;;8.00;;
9449;SDS011;4763;48.370;10.874;2023-12-14T17:05:27;7.77;;;5.47;;
9449;SDS011;4763;48.370;10.874;2023-12-14T17:08:14;9.83;;;5.90;;
9449;SDS011;4763;48.370;10.874;2023-12-14T17:11:01;9.17;;;5.87;;
9449;SDS011;4763;48.370;10.874;2023-12-14T17:13:48;9.00;;;5.70;;
9449;SDS011;4763;48.370;10.874;2023-12-14T17:16:35;8.17;;;5.37;;
9449;SDS011;4763;48.370;10.874;2023-12-14T17:19:23;10.47;;;5.87;;
9449;SDS011;4763;48.370;10.874;2023-12-14T17:22:10;9.40;;;6.03;;
9449;SDS011;4763;48.370;10.874;2023-12-14T17:24:57;7.67;;;6.23;;
9449;SDS011;4763;48.370;10.874;2023-12-14T17:27:45;8.37;;;7.10;;
9449;SDS011;4763;48.370;10.874;2023-12-14T17:30:32;11.20;;;7.07;;
9449;SDS011;4763;48.370;10.874;2023-12-14T17:41:01;7.40;;;6.13;;
9449;SDS011;4763;48.370;10.874;2023-12-14T17:49:01;9.33;;;6.67;;
9449;SDS011;4763;48.370;10.874;2023-12-14T17:51:48;8.93;;;6.63;;
9449;SDS011;4763;48.370;10.874;2023-12-14T17:54:36;7.63;;;6.20;;
9449;SDS011;4763;48.370;10.874;2023-12-14T17:57:25;10.87;;;7.10;;
9449;SDS011;4763;48.370;10.874;2023-12-14T18:00:13;13.97;;;6.90;;
9449;SDS011;4763;48.370;10.874;2023-12-14T18:03:00;10.33;;;6.53;;
9449;SDS011;4763;48.370;10.874;2023-12-14T18:05:49;10.43;;;7.10;;
9449;SDS011;4763;48.370;10.874;2023-12-14T18:08:36;12.23;;;7.60;;
9449;SDS011;4763;48.370;10.874;2023-12-14T18:11:24;14.00;;;8.33;;
9449;SDS011;4763;48.370;10.874;2023-12-14T18:14:12;13.03;;;8.23;;
9449;SDS011;4763;48.370;10.874;2023-12-14T18:16:59;12.70;;;8.60;;
9449;SDS011;4763;48.370;10.874;2023-12-14T18:19:46;14.93;;;9.37;;
9449;SDS011;4763;48.370;10.874;2023-12-14T18:22:34;12.10;;;8.97;;
9449;SDS011;4763;48.370;10.874;2023-12-14T18:25:21;16.90;;;9.50;;
9449;SDS011;4763;48.370;10.874;2023-12-14T18:28:10;13.40;;;8.87;;
9449;SDS011;4763;48.370;10.874;2023-12-14T18:30:59;13.60;;;9.47;;
9449;SDS011;4763;48.370;10.874;2023-12-14T18:33:46;14.60;;;8.97;;
9449;SDS011;4763;48.370;10.874;2023-12-14T18:36:37;14.93;;;10.40;;
9449;SDS011;4763;48.370;10.874;2023-12-14T18:39:25;15.07;;;9.47;;
9449;SDS011;4763;48.370;10.874;2023-12-14T18:42:12;14.93;;;10.90;;
9449;SDS011;4763;48.370;10.874;2023-12-14T18:44:59;14.83;;;10.70;;
9449;SDS011;4763;48.370;10.874;2023-12-14T18:47:47;16.03;;;10.73;;
9449;SDS011;4763;48.370;10.874;2023-12-14T18:50:35;16.50;;;10.10;;
9449;SDS011;4763;48.370;10.874;2023-12-14T18:55:50;14.80;;;9.73;;
9449;SDS011;4763;48.370;10.874;2023-12-14T18:58:38;17.20;;;10.97;;
9449;SDS011;4763;48.370;10.874;2023-12-14T19:01:25;16.63;;;8.63;;
9449;SDS011;4763;48.370;10.874;2023-12-14T19:12:00;5.07;;;4.10;;
9449;SDS011;4763;48.370;10.874;2023-12-14T19:14:47;5.47;;;4.77;;
9449;SDS011;4763;48.370;10.874;2023-12-14T19:17:34;7.30;;;3.40;;
9449;SDS011;4763;48.370;10.874;2023-12-14T19:20:23;8.57;;;3.97;;
9449;SDS011;4763;48.370;10.874;2023-12-14T19:23:10;4.87;;;3.40;;
9449;SDS011;4763;48.370;10.874;2023-12-14T19:25:57;6.37;;;3.60;;
9449;SDS011;4763;48.370;10.874;2023-12-14T19:28:46;4.90;;;3.10;;
9449;SDS011;4763;48.370;10.874;2023-12-14T19:31:33;4.20;;;3.30;;
9449;SDS011;4763;48.370;10.874;2023-12-14T19:34:20;4.67;;;3.67;;
9449;SDS011;4763;48.370;10.874;2023-12-14T19:37:07;4.13;;;3.10;;
9449;SDS011;4763;48.370;10.874;2023-12-14T19:40:00;4.90;;;3.93;;
9449;SDS011;4763;48.370;10.874;2023-12-14T19:42:57;4.13;;;3.50;;
9449;SDS011;4763;48.370;10.874;2023-12-14T19:45:45;5.10;;;4.17;;
9449;SDS011;4763;48.370;10.874;2023-12-14T19:48:33;5.67;;;4.33;;
9449;SDS011;4763;48.370;10.874;2023-12-14T19:51:23;6.30;;;5.07;;
9449;SDS011;4763;48.370;10.874;2023-12-14T19:54:18;6.77;;;4.80;;
9449;SDS011;4763;48.370;10.874;2023-12-14T19:57:05;6.97;;;4.63;;
9449;SDS011;4763;48.370;10.874;2023-12-14T19:59:52;7.13;;;4.57;;
9449;SDS011;4763;48.370;10.874;2023-12-14T20:02:46;5.77;;;4.37;;
9449;SDS011;4763;48.370;10.874;2023-12-14T20:05:34;5.57;;;4.50;;
9449;SDS011;4763;48.370;10.874;2023-12-14T20:08:23;7.30;;;5.27;;
9449;SDS011;4763;48.370;10.874;2023-12-14T20:11:14;8.03;;;5.60;;
9449;SDS011;4763;48.370;10.874;2023-12-14T20:14:04;8.70;;;5.90;;
9449;SDS011;4763;48.370;10.874;2023-12-14T20:16:53;6.60;;;5.63;;
9449;SDS011;4763;48.370;10.874;2023-12-14T20:19:43;8.83;;;6.03;;
9449;SDS011;4763;48.370;10.874;2023-12-14T20:22:30;8.97;;;6.83;;
9449;SDS011;4763;48.370;10.874;2023-12-14T20:25:21;10.00;;;6.80;;